createdAt,value
2022-11-17T00:03:30.925Z,97416.77
2022-11-17T00:08:33.217Z,97411.80
2022-11-17T00:13:56.991Z,97409.59
2022-11-17T00:19:17.843Z,97411.60
2022-11-17T00:24:19.742Z,97415.63
2022-11-17T00:29:21.614Z,97412.84
2022-11-17T00:34:24.016Z,97420.71
2022-11-17T00:39:25.863Z,97420.27
2022-11-17T00:44:27.859Z,97415.85
2022-11-17T00:49:29.755Z,97410.58
2022-11-17T00:54:31.592Z,97413.06
2022-11-17T00:59:33.496Z,97410.58
2022-11-17T01:04:35.321Z,97413.70
2022-11-17T01:09:37.184Z,97413.48
2022-11-17T01:14:39.089Z,97399.00
2022-11-17T01:19:41.125Z,97393.04
2022-11-17T01:24:42.987Z,97398.38
2022-11-17T01:29:44.894Z,97407.19
2022-11-17T01:34:47.573Z,97398.63
2022-11-17T01:39:50.827Z,97400.00
2022-11-17T01:45:01.812Z,97392.87
2022-11-17T01:50:03.689Z,97389.63
2022-11-17T01:55:08.771Z,97391.70
2022-11-17T02:00:12.094Z,97399.14
2022-11-17T02:06:11.675Z,97405.26
2022-11-17T02:11:18.221Z,97404.65
2022-11-17T02:16:20.322Z,97402.31
2022-11-17T02:22:02.208Z,97389.93
2022-11-17T02:27:32.215Z,97390.68
2022-11-17T02:32:59.510Z,97389.83
2022-11-17T02:38:27.491Z,97387.39
2022-11-17T02:43:59.411Z,97382.37
2022-11-17T02:49:08.426Z,97381.30
2022-11-17T02:54:11.704Z,97373.31
2022-11-17T02:59:17.072Z,97373.05
2022-11-17T03:04:22.012Z,97375.43
2022-11-17T03:09:44.519Z,97375.90
2022-11-17T03:15:04.590Z,97378.91
2022-11-17T03:20:14.392Z,97376.00
2022-11-17T03:25:21.614Z,97368.45
2022-11-17T03:30:25.688Z,97368.30
2022-11-17T03:35:32.402Z,97368.73
2022-11-17T03:40:39.453Z,97369.78
2022-11-17T03:45:47.405Z,97358.67
2022-11-17T03:50:57.937Z,97369.98
2022-11-17T03:56:11.083Z,97374.99
2022-11-17T04:01:14.947Z,97370.14
2022-11-17T04:06:16.838Z,97367.66
2022-11-17T04:11:37.596Z,97364.74
2022-11-17T04:16:39.395Z,97373.83
2022-11-17T04:21:41.373Z,97373.60
2022-11-17T04:27:02.049Z,97371.70
2022-11-17T04:32:04.073Z,97371.59
2022-11-17T04:37:17.376Z,97381.01
2022-11-17T04:42:19.490Z,97384.75
2022-11-17T04:47:21.342Z,97383.17
2022-11-17T04:52:26.891Z,97388.09
2022-11-17T04:57:31.597Z,97392.14
2022-11-17T05:02:33.457Z,97392.63
2022-11-17T05:07:35.401Z,97394.46
2022-11-17T05:12:56.030Z,97384.52
2022-11-17T05:17:57.835Z,97383.73
2022-11-17T05:23:18.361Z,97380.92
2022-11-17T05:28:20.214Z,97382.98
2022-11-17T05:33:21.985Z,97388.27
2022-11-17T05:38:23.877Z,97391.92
2022-11-17T05:43:25.743Z,97400.47
2022-11-17T05:48:27.738Z,97397.61
2022-11-17T05:53:30.379Z,97405.33
2022-11-17T05:58:36.607Z,97412.84
2022-11-17T06:03:42.282Z,97420.81
2022-11-17T06:08:44.123Z,97423.95
2022-11-17T06:13:45.964Z,97425.21
2022-11-17T06:18:55.325Z,97422.84
2022-11-17T06:23:58.154Z,97418.98
2022-11-17T06:29:02.287Z,97419.26
2022-11-17T06:34:05.235Z,97412.97
2022-11-17T06:39:07.034Z,97417.31
2022-11-17T06:44:08.907Z,97416.77
2022-11-17T06:49:10.731Z,97416.02
2022-11-17T06:54:14.839Z,97411.84
2022-11-17T06:59:17.420Z,97406.50
2022-11-17T07:04:19.640Z,97416.55
2022-11-17T07:09:21.614Z,97415.48
2022-11-17T07:14:23.565Z,97415.89
2022-11-17T07:19:25.482Z,97427.14
2022-11-17T07:24:27.409Z,97426.89
2022-11-17T07:29:30.958Z,97431.22
2022-11-17T07:34:32.832Z,97447.46
2022-11-17T07:39:34.717Z,97452.40
2022-11-17T07:44:36.593Z,97457.31
2022-11-17T07:49:38.481Z,97460.58
2022-11-17T07:54:40.840Z,97461.27
2022-11-17T07:59:42.692Z,97461.33
2022-11-17T08:04:44.578Z,97463.17
2022-11-17T08:09:46.501Z,97461.38
2022-11-17T08:14:48.424Z,97464.34
2022-11-17T08:19:50.444Z,97462.85
2022-11-17T08:24:52.333Z,97468.72
2022-11-17T08:29:54.284Z,97472.70
2022-11-17T08:34:56.174Z,97475.45
2022-11-17T08:39:58.012Z,97470.05
2022-11-17T08:45:00.670Z,97463.37
2022-11-17T08:50:03.133Z,97454.01
2022-11-17T08:55:05.980Z,97469.42
2022-11-17T09:00:08.775Z,97475.59
2022-11-17T09:05:10.667Z,97474.91
2022-11-17T09:10:12.937Z,97484.84
2022-11-17T09:15:14.834Z,97483.77
2022-11-17T09:20:17.791Z,97481.27
2022-11-17T09:25:19.629Z,97479.85
2022-11-17T09:30:22.491Z,97480.21
2022-11-17T09:35:24.313Z,97483.60
2022-11-17T09:40:26.601Z,97490.21
2022-11-17T09:45:35.247Z,97491.23
2022-11-17T09:50:39.394Z,97490.80
2022-11-17T09:55:45.528Z,97497.22
2022-11-17T10:00:49.032Z,97499.17
2022-11-17T10:05:52.200Z,97502.20
2022-11-17T10:10:54.051Z,97497.61
2022-11-17T10:16:01.113Z,97493.32
2022-11-17T10:21:05.501Z,97493.61
2022-11-17T10:26:09.961Z,97489.52
2022-11-17T10:31:19.550Z,97481.00
2022-11-17T10:36:29.176Z,97477.55
2022-11-17T10:41:41.351Z,97479.92
2022-11-17T10:47:08.208Z,97480.64
2022-11-17T10:52:16.959Z,97484.05
2022-11-17T10:57:26.717Z,97484.13
2022-11-17T11:02:36.298Z,97477.97
2022-11-17T11:07:39.888Z,97468.06
2022-11-17T11:12:47.789Z,97467.46
2022-11-17T11:17:51.160Z,97474.77
2022-11-17T11:22:55.913Z,97476.91
2022-11-17T11:28:19.516Z,97482.06
2022-11-17T11:33:36.699Z,97485.50
2022-11-17T11:38:50.280Z,97490.45
2022-11-17T11:43:58.193Z,97492.23
2022-11-17T11:49:12.972Z,97487.66
2022-11-17T11:54:51.203Z,97492.39
2022-11-17T12:00:04.467Z,97501.66
2022-11-17T12:05:20.279Z,97494.99
2022-11-17T12:10:42.069Z,97490.67
2022-11-17T12:15:44.168Z,97497.10
2022-11-17T12:20:52.083Z,97500.38
2022-11-17T12:25:59.168Z,97497.69
2022-11-17T12:31:10.664Z,97501.01
2022-11-17T12:36:18.540Z,97505.27
2022-11-17T12:41:48.346Z,97505.67
2022-11-17T12:46:55.741Z,97499.73
2022-11-17T12:52:07.042Z,97498.65
2022-11-17T12:57:14.755Z,97493.15
2022-11-17T13:02:47.946Z,97516.09
2022-11-17T13:07:50.277Z,97521.81
2022-11-17T13:13:13.115Z,97522.98
2022-11-17T13:18:28.594Z,97521.55
2022-11-17T13:23:33.670Z,97512.79
2022-11-17T13:28:35.590Z,97515.59
2022-11-17T13:33:40.403Z,97515.52
2022-11-17T13:38:53.198Z,97519.27
2022-11-17T13:43:56.144Z,97515.48
2022-11-17T13:48:58.024Z,97505.91
2022-11-17T13:54:01.147Z,97506.48
2022-11-17T13:59:18.157Z,97516.54
2022-11-17T14:04:23.183Z,97521.24
2022-11-17T14:09:27.374Z,97522.63
2022-11-17T14:14:38.415Z,97509.09
2022-11-17T14:19:41.006Z,97502.80
2022-11-17T14:24:42.858Z,97515.48
2022-11-17T14:29:44.958Z,97506.94
2022-11-17T14:34:46.906Z,97494.36
2022-11-17T14:39:48.770Z,97485.21
2022-11-17T14:44:50.593Z,97482.58
2022-11-17T14:49:52.404Z,97485.17
2022-11-17T14:54:54.274Z,97478.83
2022-11-17T14:59:56.165Z,97470.21
2022-11-17T15:05:00.183Z,97467.15
2022-11-17T15:10:03.107Z,97458.23
2022-11-17T15:15:05.520Z,97471.96
2022-11-17T15:20:08.084Z,97481.05
2022-11-17T15:25:10.017Z,97470.90
2022-11-17T15:30:12.524Z,97458.53
2022-11-17T15:35:14.419Z,97451.52
2022-11-17T15:40:19.432Z,97451.34
2022-11-17T15:45:21.690Z,97457.79
2022-11-17T15:50:23.509Z,97455.67
2022-11-17T15:55:25.338Z,97455.62
2022-11-17T16:00:27.204Z,97453.15
2022-11-17T16:05:29.052Z,97471.10
2022-11-17T16:10:30.883Z,97463.30
2022-11-17T16:15:32.685Z,97463.92
2022-11-17T16:20:34.620Z,97470.58
2022-11-17T16:25:44.158Z,97470.59
2022-11-17T16:30:46.034Z,97463.83
2022-11-17T16:35:47.885Z,97464.49
2022-11-17T16:40:49.757Z,97461.08
2022-11-17T16:45:51.586Z,97467.09
2022-11-17T16:50:53.465Z,97462.33
2022-11-17T16:55:55.272Z,97467.14
2022-11-17T17:00:57.792Z,97482.83
2022-11-17T17:06:03.975Z,97482.29
2022-11-17T17:11:08.811Z,97469.41
2022-11-17T17:16:13.648Z,97468.02
2022-11-17T17:21:18.278Z,97474.70
2022-11-17T17:26:22.518Z,97481.29
2022-11-17T17:31:26.248Z,97487.84
2022-11-17T17:36:29.232Z,97485.88
2022-11-17T17:41:33.519Z,97475.75
2022-11-17T17:46:38.512Z,97454.62
2022-11-17T17:51:44.275Z,97468.92
2022-11-17T17:56:47.507Z,97456.78
2022-11-17T18:01:49.794Z,97425.21
2022-11-17T18:06:51.796Z,97443.91
2022-11-17T18:11:53.671Z,97436.25
2022-11-17T18:16:56.027Z,97420.45
2022-11-17T18:21:57.880Z,97418.35
2022-11-17T18:26:59.790Z,97414.21
2022-11-17T18:32:01.664Z,97412.69
2022-11-17T18:37:03.579Z,97409.15
2022-11-17T18:42:05.555Z,97424.39
2022-11-17T18:47:07.492Z,97433.85
2022-11-17T18:52:09.909Z,97438.61
2022-11-17T18:57:11.799Z,97447.25
2022-11-17T19:02:13.667Z,97454.81
2022-11-17T19:07:15.630Z,97455.76
2022-11-17T19:12:19.119Z,97446.95
2022-11-17T19:17:20.993Z,97443.16
2022-11-17T19:22:23.263Z,97437.98
2022-11-17T19:27:25.083Z,97439.04
2022-11-17T19:32:27.074Z,97438.51
2022-11-17T19:37:28.983Z,97446.61
2022-11-17T19:42:30.922Z,97454.54
2022-11-17T19:47:32.760Z,97455.55
2022-11-17T19:52:34.903Z,97465.53
2022-11-17T19:57:36.728Z,97464.79
2022-11-17T20:02:38.560Z,97453.54
2022-11-17T20:07:40.466Z,97449.95
2022-11-17T20:12:43.878Z,97443.39
2022-11-17T20:17:45.728Z,97442.18
2022-11-17T20:22:47.595Z,97426.87
2022-11-17T20:27:49.477Z,97425.91
2022-11-17T20:32:51.276Z,97420.64
2022-11-17T20:37:53.109Z,97419.94
2022-11-17T20:42:55.242Z,97419.73
2022-11-17T20:47:57.109Z,97415.39
2022-11-17T20:52:58.964Z,97414.56
2022-11-17T20:58:00.798Z,97405.55
2022-11-17T21:03:02.708Z,97404.02
2022-11-17T21:08:04.822Z,97402.31
2022-11-17T21:13:06.715Z,97400.67
2022-11-17T21:18:26.467Z,97395.59
2022-11-17T21:23:28.545Z,97387.04
2022-11-17T21:28:30.417Z,97382.40
2022-11-17T21:33:32.337Z,97379.71
2022-11-17T21:38:34.424Z,97368.37
2022-11-17T21:43:38.439Z,97364.36
2022-11-17T21:48:40.955Z,97362.41
2022-11-17T21:53:43.288Z,97361.99
2022-11-17T21:58:45.173Z,97363.40
2022-11-17T22:03:47.147Z,97357.23
2022-11-17T22:08:50.079Z,97356.31
2022-11-17T22:13:57.954Z,97354.05
2022-11-17T22:18:59.882Z,97351.27
2022-11-17T22:24:02.689Z,97347.67
2022-11-17T22:29:06.479Z,97351.10
2022-11-17T22:34:08.848Z,97345.30
2022-11-17T22:39:10.807Z,97340.40
2022-11-17T22:44:14.410Z,97337.71
2022-11-17T22:49:16.414Z,97330.38
2022-11-17T22:54:18.398Z,97321.94
2022-11-17T22:59:23.378Z,97323.48
2022-11-17T23:04:25.304Z,97328.48
2022-11-17T23:09:27.322Z,97332.44
2022-11-17T23:14:29.279Z,97327.85
2022-11-17T23:19:31.098Z,97326.06
2022-11-17T23:24:32.921Z,97320.10
2022-11-17T23:29:34.790Z,97320.32
2022-11-17T23:34:36.619Z,97325.84
2022-11-17T23:39:38.552Z,97322.42
2022-11-17T23:44:40.391Z,97320.35
2022-11-17T23:49:42.223Z,97317.40
2022-11-17T23:54:44.586Z,97323.94
2022-11-17T23:59:46.413Z,97317.77
